createdAt,value
2017-10-05T00:01:00.016Z,2.70
2017-10-05T00:03:28.163Z,2.00
2017-10-05T00:05:56.233Z,2.20
2017-10-05T00:08:25.108Z,3.10
2017-10-05T00:10:53.197Z,2.70
2017-10-05T00:13:22.037Z,2.10
2017-10-05T00:15:50.121Z,3.00
2017-10-05T00:18:18.211Z,2.50
2017-10-05T00:20:48.307Z,2.60
2017-10-05T00:23:17.140Z,2.37
2017-10-05T00:25:45.308Z,2.10
2017-10-05T00:28:14.218Z,2.50
2017-10-05T00:30:42.315Z,2.73
2017-10-05T00:33:11.190Z,2.90
2017-10-05T00:35:40.114Z,2.00
2017-10-05T00:38:09.109Z,2.17
2017-10-05T00:40:37.199Z,2.00
2017-10-05T00:43:05.286Z,1.97
2017-10-05T00:45:34.260Z,1.73
2017-10-05T00:48:02.328Z,1.70
2017-10-05T00:50:31.185Z,2.10
2017-10-05T00:52:59.290Z,1.93
2017-10-05T00:55:27.415Z,2.10
2017-10-05T00:57:55.494Z,1.60
2017-10-05T01:00:23.694Z,1.70
2017-10-05T01:02:51.894Z,1.43
2017-10-05T01:05:19.972Z,1.80
2017-10-05T01:07:48.141Z,1.83
2017-10-05T01:10:16.212Z,1.83
2017-10-05T01:12:44.382Z,2.43
2017-10-05T01:15:12.453Z,2.50
2017-10-05T01:17:40.577Z,2.10
2017-10-05T01:20:09.454Z,3.43
2017-10-05T01:22:37.526Z,2.07
2017-10-05T01:25:05.655Z,1.90
2017-10-05T01:27:33.871Z,2.90
2017-10-05T01:30:02.013Z,2.30
2017-10-05T01:32:30.157Z,1.97
2017-10-05T01:34:58.281Z,2.40
2017-10-05T01:37:26.462Z,2.20
2017-10-05T01:39:55.317Z,2.33
2017-10-05T01:42:23.453Z,2.33
2017-10-05T01:44:51.564Z,2.20
2017-10-05T01:47:20.413Z,1.90
2017-10-05T01:49:48.515Z,1.50
2017-10-05T01:52:16.610Z,1.80
2017-10-05T01:54:44.713Z,2.10
2017-10-05T01:57:14.312Z,1.80
2017-10-05T01:59:42.444Z,1.50
2017-10-05T02:02:10.515Z,1.73
2017-10-05T02:04:39.342Z,2.17
2017-10-05T02:07:07.475Z,1.73
2017-10-05T02:09:36.316Z,1.60
2017-10-05T02:12:04.498Z,1.70
2017-10-05T02:14:33.356Z,2.20
2017-10-05T02:17:01.538Z,1.53
2017-10-05T02:19:29.618Z,2.23
2017-10-05T02:21:57.747Z,1.57
2017-10-05T02:24:26.634Z,2.13
2017-10-05T02:26:54.709Z,2.27
2017-10-05T02:29:22.822Z,2.57
2017-10-05T02:31:51.019Z,2.10
2017-10-05T02:34:19.390Z,1.80
2017-10-05T02:36:47.484Z,3.23
2017-10-05T02:39:15.553Z,2.57
2017-10-05T02:41:43.677Z,1.93
2017-10-05T02:44:13.266Z,1.90
2017-10-05T02:46:41.587Z,1.87
2017-10-05T02:49:09.759Z,1.90
2017-10-05T02:51:38.622Z,2.27
2017-10-05T02:54:06.693Z,1.40
2017-10-05T02:56:34.763Z,1.63
2017-10-05T02:59:04.097Z,3.13
2017-10-05T03:01:32.958Z,1.83
2017-10-05T03:04:01.814Z,1.60
2017-10-05T03:06:29.899Z,1.60
2017-10-05T03:08:57.997Z,1.60
2017-10-05T03:11:26.069Z,1.40
2017-10-05T03:13:54.238Z,1.60
2017-10-05T03:16:22.317Z,1.37
2017-10-05T03:18:50.410Z,1.37
2017-10-05T03:21:18.527Z,1.60
2017-10-05T03:23:46.617Z,1.73
2017-10-05T03:26:15.474Z,1.30
2017-10-05T03:28:43.604Z,1.30
2017-10-05T03:31:12.510Z,1.40
2017-10-05T03:33:40.597Z,1.40
2017-10-05T03:36:08.744Z,1.53
2017-10-05T03:38:36.859Z,1.10
2017-10-05T03:41:04.971Z,0.97
2017-10-05T03:43:33.042Z,1.20
2017-10-05T03:46:01.161Z,1.73
2017-10-05T03:48:29.227Z,1.10
2017-10-05T03:50:57.350Z,1.30
2017-10-05T03:53:25.435Z,1.17
2017-10-05T03:55:54.281Z,1.70
2017-10-05T03:58:22.399Z,1.10
2017-10-05T04:00:50.511Z,1.80
2017-10-05T04:03:18.686Z,1.10
2017-10-05T04:05:46.766Z,1.30
2017-10-05T04:08:14.882Z,1.03
2017-10-05T04:10:43.013Z,1.10
2017-10-05T04:13:11.116Z,0.90
2017-10-05T04:15:39.211Z,1.20
2017-10-05T04:18:07.304Z,1.20
2017-10-05T04:20:36.158Z,1.20
2017-10-05T04:23:04.281Z,1.23
2017-10-05T04:25:32.419Z,0.90
2017-10-05T04:28:01.258Z,1.10
2017-10-05T04:30:29.353Z,1.97
2017-10-05T04:32:57.457Z,0.90
2017-10-05T04:35:25.560Z,1.23
2017-10-05T04:37:53.669Z,2.00
2017-10-05T04:40:21.759Z,0.67
2017-10-05T04:42:50.643Z,1.40
2017-10-05T04:45:18.744Z,1.67
2017-10-05T04:47:47.599Z,1.30
2017-10-05T04:50:16.437Z,0.93
2017-10-05T04:52:44.521Z,0.80
2017-10-05T04:55:12.708Z,2.20
2017-10-05T04:57:40.958Z,2.90
2017-10-05T05:00:09.060Z,1.00
2017-10-05T05:02:37.160Z,1.10
2017-10-05T05:05:05.258Z,1.23
2017-10-05T05:07:33.329Z,1.30
2017-10-05T05:10:01.440Z,0.77
2017-10-05T05:12:30.301Z,1.37
2017-10-05T05:14:58.431Z,1.40
2017-10-05T05:17:27.295Z,1.17
2017-10-05T05:19:55.370Z,1.60
2017-10-05T05:22:23.465Z,1.10
2017-10-05T05:24:51.549Z,0.93
2017-10-05T05:27:19.654Z,1.20
2017-10-05T05:29:47.743Z,1.10
2017-10-05T05:32:15.918Z,0.93
2017-10-05T05:34:44.045Z,1.10
2017-10-05T05:37:12.145Z,1.00
2017-10-05T05:39:40.225Z,1.97
2017-10-05T05:42:08.348Z,0.93
2017-10-05T05:44:36.440Z,1.10
2017-10-05T05:47:04.515Z,1.43
2017-10-05T05:49:32.611Z,1.47
2017-10-05T05:52:00.704Z,1.30
2017-10-05T05:54:28.808Z,1.30
2017-10-05T05:56:56.873Z,1.50
2017-10-05T05:59:24.995Z,1.97
2017-10-05T06:01:53.084Z,2.93
2017-10-05T06:04:21.155Z,2.10
2017-10-05T06:06:50.034Z,2.07
2017-10-05T06:09:18.109Z,2.50
2017-10-05T06:11:46.212Z,3.40
2017-10-05T06:14:14.348Z,1.93
2017-10-05T06:16:43.187Z,1.83
2017-10-05T06:19:12.074Z,1.77
2017-10-05T06:21:40.239Z,1.73
2017-10-05T06:24:09.095Z,1.43
2017-10-05T06:26:37.249Z,1.63
2017-10-05T06:29:05.495Z,2.03
2017-10-05T06:31:33.990Z,1.80
2017-10-05T06:34:02.339Z,2.13
2017-10-05T06:36:30.438Z,2.67
2017-10-05T06:38:58.537Z,2.70
2017-10-05T06:41:28.118Z,2.20
2017-10-05T06:43:56.194Z,2.27
2017-10-05T06:46:24.279Z,1.90
2017-10-05T06:48:52.358Z,1.67
2017-10-05T06:51:20.440Z,2.10
2017-10-05T06:53:48.538Z,2.33
2017-10-05T06:56:16.654Z,2.60
2017-10-05T06:58:44.771Z,2.97
2017-10-05T07:01:12.860Z,2.20
2017-10-05T07:03:40.959Z,2.30
2017-10-05T07:06:09.831Z,2.40
2017-10-05T07:08:38.877Z,2.30
2017-10-05T07:11:07.712Z,1.60
2017-10-05T07:13:35.810Z,1.60
2017-10-05T07:16:04.646Z,1.63
2017-10-05T07:18:32.750Z,1.60
2017-10-05T07:21:00.862Z,1.77
2017-10-05T07:23:28.996Z,1.30
2017-10-05T07:25:57.066Z,1.60
2017-10-05T07:28:25.186Z,1.90
2017-10-05T07:30:53.276Z,1.87
2017-10-05T07:33:21.385Z,1.60
2017-10-05T07:35:49.559Z,1.70
2017-10-05T07:38:17.695Z,2.20
2017-10-05T07:40:45.924Z,1.40
2017-10-05T07:43:14.025Z,2.10
2017-10-05T07:45:42.274Z,1.80
2017-10-05T07:48:11.234Z,2.60
2017-10-05T07:50:40.097Z,3.70
2017-10-05T07:53:08.205Z,2.63
2017-10-05T07:55:36.302Z,2.70
2017-10-05T07:58:04.449Z,1.87
2017-10-05T08:00:32.550Z,1.47
2017-10-05T08:03:00.622Z,1.30
2017-10-05T08:05:29.523Z,1.20
2017-10-05T08:07:58.387Z,2.33
2017-10-05T08:10:26.542Z,2.00
2017-10-05T08:12:55.259Z,1.27
2017-10-05T08:15:23.391Z,1.37
2017-10-05T08:17:51.475Z,1.63
2017-10-05T08:20:19.605Z,1.73
2017-10-05T08:22:47.732Z,1.70
2017-10-05T08:25:15.907Z,2.13
2017-10-05T08:27:44.034Z,1.20
2017-10-05T08:30:12.209Z,1.43
2017-10-05T08:32:40.328Z,1.40
2017-10-05T08:35:08.451Z,1.47
2017-10-05T08:37:37.303Z,1.93
2017-10-05T08:40:05.389Z,1.20
2017-10-05T08:42:33.499Z,2.20
2017-10-05T08:45:02.362Z,2.23
2017-10-05T08:47:30.465Z,1.97
2017-10-05T08:49:58.606Z,2.00
2017-10-05T08:52:26.687Z,2.50
2017-10-05T08:54:54.818Z,1.77
2017-10-05T08:57:22.885Z,1.80
2017-10-05T08:59:51.033Z,1.83
2017-10-05T09:02:19.097Z,2.10
2017-10-05T09:04:47.242Z,4.03
2017-10-05T09:07:15.337Z,1.40
2017-10-05T09:09:44.176Z,1.20
2017-10-05T09:12:12.385Z,2.00
2017-10-05T09:14:40.458Z,1.10
2017-10-05T09:17:08.548Z,1.50
2017-10-05T09:19:36.658Z,1.83
2017-10-05T09:22:04.789Z,1.93
2017-10-05T09:24:32.910Z,1.70
2017-10-05T09:27:01.786Z,1.83
2017-10-05T09:29:29.929Z,1.73
2017-10-05T09:31:58.050Z,1.60
2017-10-05T09:34:26.263Z,2.70
2017-10-05T09:36:54.446Z,1.53
2017-10-05T09:39:23.350Z,2.83
2017-10-05T09:41:53.009Z,1.47
2017-10-05T09:44:21.297Z,0.67
2017-10-05T09:46:50.958Z,1.33
2017-10-05T09:49:19.101Z,1.80
2017-10-05T09:51:47.236Z,1.83
2017-10-05T09:54:15.377Z,1.80
2017-10-05T09:56:43.498Z,1.20
2017-10-05T09:59:11.650Z,1.30
2017-10-05T10:01:40.511Z,2.17
2017-10-05T10:04:08.701Z,2.80
2017-10-05T10:06:36.779Z,2.87
2017-10-05T10:09:05.734Z,1.60
2017-10-05T10:11:33.954Z,1.23
2017-10-05T10:14:02.097Z,1.03
2017-10-05T10:16:30.560Z,1.50
2017-10-05T10:18:58.654Z,1.80
2017-10-05T10:21:26.737Z,1.27
2017-10-05T10:23:54.849Z,1.53
2017-10-05T10:26:23.054Z,1.60
2017-10-05T10:28:51.191Z,1.30
2017-10-05T10:31:19.407Z,1.90
2017-10-05T10:33:49.250Z,2.27
2017-10-05T10:36:17.322Z,5.40
2017-10-05T10:38:45.421Z,2.60
2017-10-05T10:41:13.556Z,1.43
2017-10-05T10:43:41.628Z,2.40
2017-10-05T10:46:09.778Z,2.27
2017-10-05T10:48:37.932Z,1.80
2017-10-05T10:51:06.778Z,1.93
2017-10-05T10:53:34.890Z,1.40
2017-10-05T10:56:03.053Z,1.47
2017-10-05T10:58:31.136Z,1.30
2017-10-05T11:01:00.765Z,0.90
2017-10-05T11:03:28.823Z,1.00
2017-10-05T11:05:56.942Z,1.57
2017-10-05T11:08:25.013Z,1.03
2017-10-05T11:10:53.895Z,2.50
2017-10-05T11:13:22.863Z,2.10
2017-10-05T11:15:50.974Z,1.77
2017-10-05T11:18:19.090Z,0.80
2017-10-05T11:20:47.947Z,0.93
2017-10-05T11:23:16.072Z,1.50
2017-10-05T11:25:44.172Z,0.87
2017-10-05T11:28:12.260Z,0.70
2017-10-05T11:30:40.362Z,0.53
2017-10-05T11:33:08.497Z,1.20
2017-10-05T11:35:36.575Z,2.60
2017-10-05T11:38:04.681Z,3.03
2017-10-05T11:40:33.678Z,3.17
2017-10-05T11:43:01.846Z,3.27
2017-10-05T11:45:29.983Z,1.87
2017-10-05T11:47:58.091Z,1.07
2017-10-05T11:50:26.161Z,2.17
2017-10-05T11:52:54.286Z,2.03
2017-10-05T11:55:22.395Z,1.50
2017-10-05T11:57:50.501Z,1.20
2017-10-05T12:00:18.588Z,0.97
2017-10-05T12:02:46.686Z,0.90
2017-10-05T12:05:14.780Z,1.40
2017-10-05T12:07:42.869Z,1.40
2017-10-05T12:10:11.024Z,1.00
2017-10-05T12:12:39.150Z,0.77
2017-10-05T12:15:07.283Z,0.60
2017-10-05T12:17:36.273Z,0.70
2017-10-05T12:20:04.417Z,0.80
2017-10-05T12:22:32.487Z,0.60
2017-10-05T12:25:00.614Z,0.80
2017-10-05T12:27:28.699Z,0.70
2017-10-05T12:29:56.790Z,0.63
2017-10-05T12:32:25.699Z,0.50
2017-10-05T12:34:53.767Z,0.50
2017-10-05T12:37:21.839Z,0.90
2017-10-05T12:39:49.944Z,0.60
2017-10-05T12:42:18.121Z,0.50
2017-10-05T12:44:47.005Z,0.63
2017-10-05T12:47:15.088Z,0.70
2017-10-05T12:49:43.967Z,0.63
2017-10-05T12:52:12.078Z,0.77
2017-10-05T12:54:40.333Z,0.50
2017-10-05T12:57:08.400Z,0.77
2017-10-05T12:59:36.521Z,1.13
2017-10-05T13:02:05.384Z,0.73
2017-10-05T13:04:33.589Z,1.23
2017-10-05T13:07:02.426Z,0.50
2017-10-05T13:09:30.589Z,1.33
2017-10-05T13:11:59.421Z,3.70
2017-10-05T13:14:29.015Z,5.90
2017-10-05T13:16:57.082Z,6.03
2017-10-05T13:19:25.945Z,15.13
2017-10-05T13:21:54.025Z,9.43
2017-10-05T13:24:22.887Z,6.00
2017-10-05T13:26:51.767Z,8.50
2017-10-05T13:29:19.891Z,6.93
2017-10-05T13:31:47.976Z,3.17
2017-10-05T13:34:16.082Z,3.30
2017-10-05T13:36:44.179Z,2.83
2017-10-05T13:39:12.322Z,2.77
2017-10-05T13:41:40.442Z,2.97
2017-10-05T13:44:09.280Z,2.50
2017-10-05T13:46:37.425Z,1.87
2017-10-05T13:49:05.535Z,1.80
2017-10-05T13:51:34.390Z,1.80
2017-10-05T13:54:03.107Z,1.40
2017-10-05T13:56:31.962Z,2.13
2017-10-05T13:59:00.868Z,1.50
2017-10-05T14:01:29.719Z,1.30
2017-10-05T14:03:57.882Z,1.93
2017-10-05T14:06:26.024Z,1.40
2017-10-05T14:08:54.097Z,1.50
2017-10-05T14:11:22.173Z,5.53
2017-10-05T14:13:50.260Z,1.70
2017-10-05T14:16:18.344Z,1.47
2017-10-05T14:18:46.446Z,1.10
2017-10-05T14:21:14.591Z,1.87
2017-10-05T14:23:43.517Z,2.03
2017-10-05T14:26:12.385Z,1.77
2017-10-05T14:28:40.495Z,1.47
2017-10-05T14:31:08.749Z,1.00
2017-10-05T14:33:36.793Z,1.70
2017-10-05T14:36:06.397Z,1.60
2017-10-05T14:38:34.502Z,1.70
2017-10-05T14:41:02.605Z,1.33
2017-10-05T14:43:31.620Z,1.90
2017-10-05T14:45:59.708Z,1.53
2017-10-05T14:48:28.026Z,1.60
2017-10-05T14:50:56.140Z,2.37
2017-10-05T14:53:24.263Z,1.67
2017-10-05T14:55:52.388Z,2.33
2017-10-05T14:58:20.572Z,2.30
2017-10-05T15:00:48.694Z,12.43
2017-10-05T15:03:16.856Z,18.57
2017-10-05T15:05:44.964Z,10.93
2017-10-05T15:08:13.080Z,11.20
2017-10-05T15:10:41.187Z,10.63
2017-10-05T15:13:09.381Z,8.43
2017-10-05T15:15:38.257Z,12.23
2017-10-05T15:18:06.365Z,10.33
2017-10-05T15:20:35.740Z,6.40
2017-10-05T15:23:03.870Z,4.83
2017-10-05T15:25:32.724Z,4.93
2017-10-05T15:28:01.597Z,4.00
2017-10-05T15:30:29.785Z,2.63
2017-10-05T15:32:57.883Z,2.57
2017-10-05T15:35:25.982Z,3.23
2017-10-05T15:37:54.088Z,2.20
2017-10-05T15:40:22.225Z,2.30
2017-10-05T15:42:50.320Z,2.43
2017-10-05T15:45:18.439Z,2.90
2017-10-05T15:47:47.294Z,2.60
2017-10-05T15:50:15.383Z,2.03
2017-10-05T15:52:43.466Z,2.90
2017-10-05T15:55:11.597Z,2.23
2017-10-05T15:57:39.670Z,2.40
2017-10-05T16:00:07.783Z,2.20
2017-10-05T16:02:35.858Z,1.53
2017-10-05T16:05:03.947Z,1.93
2017-10-05T16:07:32.031Z,1.87
2017-10-05T16:10:00.126Z,1.73
2017-10-05T16:12:29.005Z,1.90
2017-10-05T16:14:57.132Z,1.80
2017-10-05T16:17:25.984Z,1.53
2017-10-05T16:19:54.848Z,2.13
2017-10-05T16:22:22.939Z,1.80
2017-10-05T16:24:52.545Z,1.50
2017-10-05T16:27:20.627Z,2.33
2017-10-05T16:29:48.750Z,1.67
2017-10-05T16:32:16.833Z,1.73
2017-10-05T16:34:44.924Z,1.60
2017-10-05T16:37:13.042Z,1.33
2017-10-05T16:39:41.124Z,2.30
2017-10-05T16:42:09.249Z,1.57
2017-10-05T16:44:37.381Z,1.93
2017-10-05T16:47:06.067Z,2.37
2017-10-05T16:49:34.142Z,1.67
2017-10-05T16:52:02.227Z,1.93
2017-10-05T16:54:30.318Z,3.97
2017-10-05T16:56:58.537Z,2.03
2017-10-05T16:59:27.388Z,1.57
2017-10-05T17:01:55.640Z,1.60
2017-10-05T17:04:23.740Z,1.77
2017-10-05T17:06:51.810Z,2.17
2017-10-05T17:09:20.673Z,1.90
2017-10-05T17:11:48.821Z,2.50
2017-10-05T17:14:17.336Z,2.07
2017-10-05T17:16:45.416Z,2.43
2017-10-05T17:19:13.506Z,1.93
2017-10-05T17:21:41.651Z,2.13
2017-10-05T17:24:10.510Z,2.30
2017-10-05T17:26:38.682Z,2.40
2017-10-05T17:29:07.602Z,2.03
2017-10-05T17:31:35.702Z,2.20
2017-10-05T17:34:03.839Z,2.43
2017-10-05T17:36:32.046Z,1.83
2017-10-05T17:39:01.268Z,2.40
2017-10-05T17:41:29.525Z,1.60
2017-10-05T17:43:57.633Z,2.27
2017-10-05T17:46:25.840Z,2.40
2017-10-05T17:48:54.092Z,2.47
2017-10-05T17:51:22.701Z,1.40
2017-10-05T17:53:50.805Z,1.90
2017-10-05T17:56:19.725Z,1.60
2017-10-05T17:58:47.973Z,2.10
2017-10-05T18:01:17.604Z,3.67
2017-10-05T18:03:45.674Z,6.07
2017-10-05T18:06:14.531Z,10.07
2017-10-05T18:08:42.652Z,10.83
2017-10-05T18:11:10.745Z,3.60
2017-10-05T18:13:40.558Z,3.17
2017-10-05T18:16:09.414Z,7.00
2017-10-05T18:18:37.529Z,10.63
2017-10-05T18:21:05.621Z,5.30
2017-10-05T18:23:33.756Z,4.10
2017-10-05T18:26:02.650Z,4.20
2017-10-05T18:28:31.513Z,2.60
2017-10-05T18:31:00.499Z,2.43
2017-10-05T18:33:28.713Z,2.90
2017-10-05T18:35:56.868Z,1.50
2017-10-05T18:38:24.956Z,2.10
2017-10-05T18:40:53.095Z,1.70
2017-10-05T18:43:21.270Z,2.03
2017-10-05T18:45:49.412Z,2.33
2017-10-05T18:48:18.287Z,2.47
2017-10-05T18:50:46.432Z,1.47
2017-10-05T18:53:15.259Z,1.90
2017-10-05T18:55:44.130Z,1.77
2017-10-05T18:58:12.202Z,1.80
2017-10-05T19:00:42.719Z,1.70
2017-10-05T19:03:10.843Z,1.87
2017-10-05T19:05:39.720Z,2.37
2017-10-05T19:08:07.799Z,1.77
2017-10-05T19:10:35.875Z,2.40
2017-10-05T19:13:03.947Z,2.30
2017-10-05T19:15:32.851Z,2.37
2017-10-05T19:18:01.727Z,2.13
2017-10-05T19:20:29.810Z,2.70
2017-10-05T19:22:58.550Z,2.57
2017-10-05T19:25:26.673Z,1.97
2017-10-05T19:27:54.768Z,2.43
2017-10-05T19:30:22.842Z,1.97
2017-10-05T19:32:50.949Z,1.93
2017-10-05T19:35:19.806Z,2.43
2017-10-05T19:37:48.673Z,1.90
2017-10-05T19:40:16.774Z,2.20
2017-10-05T19:42:44.902Z,1.80
2017-10-05T19:45:13.751Z,2.70
2017-10-05T19:47:41.882Z,2.13
2017-10-05T19:50:09.998Z,2.83
2017-10-05T19:52:38.130Z,2.17
2017-10-05T19:55:06.195Z,2.30
2017-10-05T19:57:35.073Z,2.50
2017-10-05T20:00:03.281Z,3.00
2017-10-05T20:02:31.440Z,2.50
2017-10-05T20:04:59.642Z,3.03
2017-10-05T20:07:27.722Z,2.53
2017-10-05T20:09:55.801Z,2.40
2017-10-05T20:12:23.887Z,2.67
2017-10-05T20:14:57.583Z,2.70
2017-10-05T20:17:38.376Z,2.13
2017-10-05T20:23:16.685Z,2.77
2017-10-05T20:25:45.841Z,3.77
2017-10-05T20:28:19.620Z,2.47
2017-10-05T20:31:02.706Z,3.63
2017-10-05T20:33:30.919Z,2.97
2017-10-05T20:35:59.021Z,3.90
2017-10-05T20:38:27.132Z,4.70
2017-10-05T20:40:55.237Z,2.40
2017-10-05T20:43:23.333Z,2.60
2017-10-05T20:45:51.425Z,2.23
2017-10-05T20:48:19.544Z,2.60
2017-10-05T20:50:48.439Z,1.93
2017-10-05T20:53:16.597Z,3.27
2017-10-05T20:55:44.710Z,2.40
2017-10-05T20:58:12.783Z,2.43
2017-10-05T21:00:41.402Z,3.00
2017-10-05T21:03:09.562Z,2.87
2017-10-05T21:05:38.489Z,2.00
2017-10-05T21:08:07.360Z,2.10
2017-10-05T21:10:35.467Z,3.30
2017-10-05T21:13:03.538Z,2.57
2017-10-05T21:15:32.426Z,2.80
2017-10-05T21:18:00.497Z,3.00
2017-10-05T21:20:30.110Z,2.77
2017-10-05T21:22:58.250Z,3.20
2017-10-05T21:25:27.122Z,2.33
2017-10-05T21:27:55.202Z,2.10
2017-10-05T21:30:24.836Z,2.10
2017-10-05T21:32:53.038Z,2.50
2017-10-05T21:35:21.121Z,2.13
2017-10-05T21:37:49.256Z,2.60
2017-10-05T21:40:17.363Z,1.60
2017-10-05T21:42:45.445Z,2.10
2017-10-05T21:45:14.304Z,2.57
2017-10-05T21:47:42.531Z,2.07
2017-10-05T21:50:11.142Z,2.53
2017-10-05T21:52:39.303Z,2.00
2017-10-05T21:55:08.143Z,1.67
2017-10-05T21:57:37.002Z,1.53
2017-10-05T22:00:05.102Z,2.13
2017-10-05T22:02:33.241Z,1.57
2017-10-05T22:05:01.311Z,2.43
2017-10-05T22:07:29.383Z,2.50
2017-10-05T22:09:58.222Z,1.97
2017-10-05T22:12:27.067Z,2.70
2017-10-05T22:14:55.142Z,2.50
2017-10-05T22:17:23.243Z,1.63
2017-10-05T22:19:51.341Z,1.67
2017-10-05T22:22:19.446Z,2.27
2017-10-05T22:24:48.302Z,2.00
2017-10-05T22:27:16.370Z,2.30
2017-10-05T22:29:44.589Z,1.93
2017-10-05T22:32:12.653Z,1.53
2017-10-05T22:34:40.764Z,1.67
2017-10-05T22:37:08.848Z,1.10
2017-10-05T22:39:36.949Z,1.17
2017-10-05T22:42:05.161Z,1.20
2017-10-05T22:44:33.266Z,1.67
2017-10-05T22:47:01.425Z,1.40
2017-10-05T22:49:29.525Z,1.23
2017-10-05T22:51:58.386Z,1.30
2017-10-05T22:54:26.473Z,1.00
2017-10-05T22:56:54.610Z,2.00
2017-10-05T22:59:23.465Z,2.00
2017-10-05T23:01:51.551Z,1.63
2017-10-05T23:04:20.459Z,1.93
2017-10-05T23:06:48.525Z,1.23
2017-10-05T23:09:16.638Z,1.30
2017-10-05T23:11:45.305Z,1.93
2017-10-05T23:14:14.130Z,1.83
2017-10-05T23:16:42.294Z,2.13
2017-10-05T23:19:10.360Z,1.57
2017-10-05T23:21:39.242Z,2.23
2017-10-05T23:24:07.416Z,1.60
2017-10-05T23:26:35.497Z,1.00
2017-10-05T23:29:05.140Z,2.17
2017-10-05T23:31:33.998Z,1.30
2017-10-05T23:34:02.073Z,1.50
2017-10-05T23:36:30.189Z,1.60
2017-10-05T23:38:58.269Z,1.47
2017-10-05T23:41:26.372Z,1.43
2017-10-05T23:43:54.466Z,2.13
2017-10-05T23:46:23.315Z,2.07
2017-10-05T23:48:51.434Z,1.40
2017-10-05T23:51:19.506Z,2.40
2017-10-05T23:53:48.424Z,1.93
2017-10-05T23:56:16.532Z,1.97
2017-10-05T23:58:45.394Z,3.63
